Time;durP1;ratioP1;P1;durP2;ratioP2;P2;SDS_P1;SDS_P2;PMS_P1;PMS_P2;Temp;Humidity;BMP_temperature;BMP_pressure;BME280_temperature;BME280_humidity;BME280_pressure;Samples;Min_cycle;Max_cycle;Signal;HPM_P1;HPM_P2
2021/12/29 00:00:59;;;;;;;3.78;1.45;;;10.10;72.20;;;;;;7361775;19;20161;-38
2021/12/29 00:03:29;;;;;;;8.43;1.55;;;10.20;72.20;;;;;;7357448;19;20143;-38
2021/12/29 00:06:01;;;;;;;4.17;1.20;;;10.20;72.20;;;;;;7369424;19;20602;-38
2021/12/29 00:08:31;;;;;;;4.45;0.90;;;10.10;72.10;;;;;;7369115;19;20432;-38
2021/12/29 00:11:01;;;;;;;1.63;0.95;;;10.20;71.60;;;;;;7358894;19;20619;-38
2021/12/29 00:13:31;;;;;;;9.00;0.88;;;10.20;71.50;;;;;;7366900;19;20133;-38
2021/12/29 00:16:03;;;;;;;4.78;1.00;;;10.30;71.30;;;;;;7347531;19;20131;-38
2021/12/29 00:18:35;;;;;;;1.85;0.80;;;10.20;71.00;;;;;;7357770;19;20131;-38
2021/12/29 00:21:10;;;;;;;5.43;1.02;;;10.20;71.40;;;;;;7371549;19;20600;-38
2021/12/29 00:23:39;;;;;;;3.17;0.70;;;10.20;71.50;;;;;;7368414;19;20127;-38
2021/12/29 00:26:11;;;;;;;0.88;0.40;;;10.20;71.30;;;;;;7371441;19;20137;-38
2021/12/29 00:28:40;;;;;;;1.95;0.50;;;10.20;71.30;;;;;;7368782;19;20143;-38
2021/12/29 00:31:10;;;;;;;1.30;0.70;;;10.10;71.20;;;;;;7368989;19;20614;-36
2021/12/29 00:33:59;;;;;;;3.23;0.80;;;10.10;71.50;;;;;;7367956;19;20156;-36
2021/12/29 00:36:50;;;;;;;7.80;1.10;;;10.20;71.10;;;;;;7377546;19;20399;-37
2021/12/29 00:39:58;;;;;;;2.05;0.65;;;10.20;71.00;;;;;;7369968;19;20455;-36
2021/12/29 00:42:47;;;;;;;2.78;1.25;;;10.10;71.70;;;;;;7370413;19;20136;-37
2021/12/29 00:45:43;;;;;;;2.72;0.68;;;10.20;71.70;;;;;;7367566;19;20154;-36
2021/12/29 00:48:15;;;;;;;4.22;1.38;;;10.10;71.40;;;;;;7373962;19;20138;-36
2021/12/29 00:50:45;;;;;;;1.95;0.57;;;10.20;71.70;;;;;;7373608;19;20128;-37
2021/12/29 00:53:19;;;;;;;1.80;0.70;;;10.20;71.30;;;;;;7369820;19;20815;-36
2021/12/29 00:55:51;;;;;;;2.30;0.80;;;10.20;71.80;;;;;;7367921;19;20387;-36
2021/12/29 00:58:20;;;;;;;2.22;0.80;;;10.10;72.40;;;;;;7377716;19;20380;-36
2021/12/29 01:00:51;;;;;;;4.32;0.80;;;10.10;73.30;;;;;;7363699;19;20131;-38
2021/12/29 01:03:20;;;;;;;1.10;0.50;;;10.10;73.50;;;;;;7369143;19;20713;-38
2021/12/29 01:05:50;;;;;;;1.73;0.60;;;10.10;73.80;;;;;;7366388;19;20627;-38
2021/12/29 01:08:23;;;;;;;4.13;1.00;;;10.00;73.80;;;;;;7366727;19;20131;-38
2021/12/29 01:10:53;;;;;;;1.65;0.73;;;9.90;75.80;;;;;;7365568;19;20151;-38
2021/12/29 01:13:30;;;;;;;2.55;0.93;;;10.00;74.50;;;;;;7372001;19;20134;-38
2021/12/29 01:16:16;;;;;;;4.07;1.13;;;10.00;74.40;;;;;;7373866;19;20134;-38
2021/12/29 01:18:45;;;;;;;1.85;0.80;;;10.00;74.10;;;;;;7373805;19;20142;-38
2021/12/29 01:21:15;;;;;;;1.02;0.57;;;10.00;74.20;;;;;;7370161;19;20666;-38
2021/12/29 01:23:50;;;;;;;1.88;1.30;;;10.00;74.20;;;;;;7369828;19;20132;-38
2021/12/29 01:26:19;;;;;;;1.05;0.80;;;10.00;73.90;;;;;;7376793;19;20150;-38
2021/12/29 01:28:49;;;;;;;1.60;0.77;;;10.00;74.20;;;;;;7372478;19;20134;-38
2021/12/29 01:31:18;;;;;;;1.13;0.77;;;10.00;74.60;;;;;;7366330;19;20131;-38
2021/12/29 01:33:48;;;;;;;0.60;0.45;;;10.00;74.30;;;;;;7370433;19;20395;-38
2021/12/29 01:36:18;;;;;;;1.92;0.60;;;10.10;74.00;;;;;;7369927;19;20211;-38
2021/12/29 01:38:52;;;;;;;1.63;0.60;;;10.10;74.10;;;;;;7366942;19;20804;-38
2021/12/29 01:41:22;;;;;;;2.47;0.77;;;10.10;74.10;;;;;;7363665;19;20148;-38
2021/12/29 01:43:54;;;;;;;2.70;0.57;;;10.10;74.00;;;;;;7371093;19;20211;-38
2021/12/29 01:46:24;;;;;;;2.17;0.57;;;10.10;74.00;;;;;;7363697;19;20503;-38
2021/12/29 01:48:53;;;;;;;2.33;0.50;;;10.10;74.10;;;;;;7372131;19;20142;-38
2021/12/29 01:51:23;;;;;;;2.67;0.50;;;10.00;73.80;;;;;;7372294;19;20146;-38
2021/12/29 01:54:14;;;;;;;0.90;0.50;;;10.00;73.90;;;;;;7367842;19;20226;-38
2021/12/29 01:56:46;;;;;;;4.35;0.65;;;10.00;73.90;;;;;;7363066;19;20139;-38
2021/12/29 01:59:18;;;;;;;2.10;0.60;;;10.00;73.30;;;;;;7373487;19;20128;-38
2021/12/29 02:01:48;;;;;;;1.20;0.57;;;9.90;74.50;;;;;;7372953;19;20187;-38
2021/12/29 02:04:20;;;;;;;1.30;0.50;;;10.00;73.50;;;;;;7368506;19;20128;-38
2021/12/29 02:06:50;;;;;;;4.18;0.55;;;10.00;73.50;;;;;;7374184;19;20127;-38
2021/12/29 02:09:22;;;;;;;1.05;0.70;;;10.00;73.80;;;;;;7373348;19;20489;-38
2021/12/29 02:11:53;;;;;;;1.20;0.57;;;10.00;73.90;;;;;;7363150;19;20158;-38
2021/12/29 02:14:23;;;;;;;2.70;0.43;;;10.00;73.90;;;;;;7370388;19;20131;-38
2021/12/29 02:16:53;;;;;;;7.20;0.70;;;10.10;73.80;;;;;;7367946;19;20750;-38
2021/12/29 02:19:26;;;;;;;3.47;0.70;;;10.10;73.70;;;;;;7367494;19;20376;-38
2021/12/29 02:22:05;;;;;;;0.52;0.30;;;10.10;73.50;;;;;;7367193;19;20154;-38
2021/12/29 02:24:42;;;;;;;0.70;0.50;;;10.10;73.70;;;;;;7371007;19;20213;-38
2021/12/29 02:27:14;;;;;;;0.60;0.35;;;10.10;73.20;;;;;;7368296;19;20372;-38
2021/12/29 02:29:46;;;;;;;1.60;0.50;;;10.10;73.30;;;;;;7372134;19;20142;-36
2021/12/29 02:32:16;;;;;;;2.40;0.57;;;10.10;73.70;;;;;;7365938;19;20147;-36
2021/12/29 02:34:45;;;;;;;1.65;0.60;;;10.20;73.10;;;;;;7369558;19;20416;-36
2021/12/29 02:37:20;;;;;;;1.20;1.00;;;10.30;72.60;;;;;;7364632;19;20171;-36
2021/12/29 02:39:51;;;;;;;1.50;0.50;;;10.20;72.20;;;;;;7369595;19;20898;-36
2021/12/29 02:42:26;;;;;;;1.70;0.40;;;10.40;71.10;;;;;;7361825;19;20131;-36
2021/12/29 02:44:57;;;;;;;0.60;0.37;;;10.40;70.40;;;;;;7366676;19;20376;-36
2021/12/29 02:47:26;;;;;;;0.70;0.50;;;10.40;70.60;;;;;;7369251;19;20380;-36
2021/12/29 02:49:59;;;;;;;2.97;0.40;;;10.30;70.10;;;;;;7369198;19;20380;-36
2021/12/29 02:52:31;;;;;;;2.40;0.60;;;10.30;70.20;;;;;;7369740;19;20124;-36
2021/12/29 02:55:01;;;;;;;0.97;0.70;;;10.30;69.70;;;;;;7348276;19;20782;-36
2021/12/29 02:57:33;;;;;;;0.47;0.40;;;10.40;69.90;;;;;;7359647;19;21232;-36
2021/12/29 03:00:02;;;;;;;0.82;0.50;;;10.40;69.50;;;;;;7364630;19;20746;-36
2021/12/29 03:02:32;;;;;;;0.80;0.55;;;10.40;69.10;;;;;;7370148;19;20558;-36
2021/12/29 03:05:02;;;;;;;1.05;0.40;;;10.40;69.10;;;;;;7371937;19;20131;-36
2021/12/29 03:07:34;;;;;;;2.70;0.50;;;10.40;69.00;;;;;;7368176;19;20143;-36
2021/12/29 03:10:04;;;;;;;1.90;0.60;;;10.50;68.70;;;;;;7369596;19;20153;-36
2021/12/29 03:12:33;;;;;;;0.75;0.40;;;10.40;69.00;;;;;;7364009;19;20123;-36
2021/12/29 03:15:03;;;;;;;0.50;0.32;;;10.40;69.00;;;;;;7369097;19;20154;-36
2021/12/29 03:17:32;;;;;;;1.35;0.55;;;10.40;68.60;;;;;;7368016;19;20132;-36
2021/12/29 03:20:02;;;;;;;3.60;0.70;;;10.50;68.20;;;;;;7370393;19;20268;-36
2021/12/29 03:22:35;;;;;;;0.85;0.40;;;10.50;67.90;;;;;;7363096;19;20128;-37
2021/12/29 03:25:05;;;;;;;0.30;0.30;;;10.60;67.60;;;;;;7358805;19;20136;-36
2021/12/29 03:27:34;;;;;;;0.90;0.47;;;10.60;67.90;;;;;;7360821;19;20183;-36
2021/12/29 03:30:04;;;;;;;0.88;0.30;;;10.60;67.80;;;;;;7364955;19;21079;-36
2021/12/29 03:32:42;;;;;;;1.17;0.50;;;10.60;68.20;;;;;;7361084;19;20124;-36
2021/12/29 03:35:12;;;;;;;0.52;0.30;;;10.60;67.60;;;;;;7359995;19;20427;-36
2021/12/29 03:37:44;;;;;;;0.80;0.50;;;10.60;68.10;;;;;;7354275;19;20154;-36
2021/12/29 03:40:15;;;;;;;0.30;0.30;;;10.60;68.00;;;;;;7366305;19;20381;-38
2021/12/29 03:42:45;;;;;;;0.73;0.40;;;10.70;67.90;;;;;;7361507;19;20123;-38
2021/12/29 03:45:14;;;;;;;0.57;0.33;;;10.70;68.30;;;;;;7360884;19;20391;-38
2021/12/29 03:47:44;;;;;;;0.70;0.40;;;10.60;68.70;;;;;;7361370;19;20928;-39
2021/12/29 03:50:14;;;;;;;0.87;0.20;;;10.60;70.00;;;;;;7361541;19;20396;-38
2021/12/29 03:52:46;;;;;;;0.87;0.50;;;10.60;69.20;;;;;;7370139;19;20388;-38
2021/12/29 03:55:16;;;;;;;0.80;0.53;;;10.60;69.10;;;;;;7364115;19;21399;-38
2021/12/29 03:57:46;;;;;;;0.77;0.50;;;10.70;68.90;;;;;;7367537;19;21578;-38
2021/12/29 04:00:18;;;;;;;1.80;0.30;;;10.70;69.70;;;;;;7365979;19;20431;-38
2021/12/29 04:02:48;;;;;;;0.50;0.30;;;10.70;69.10;;;;;;7365344;19;20383;-38
2021/12/29 04:05:25;;;;;;;0.77;0.30;;;10.70;69.00;;;;;;7363259;19;20372;-38
2021/12/29 04:07:57;;;;;;;0.50;0.43;;;10.70;70.40;;;;;;7366779;19;20742;-38
2021/12/29 04:10:27;;;;;;;0.73;0.37;;;10.60;71.40;;;;;;7360676;19;20484;-38
2021/12/29 04:12:56;;;;;;;0.30;0.30;;;10.60;72.10;;;;;;7367681;19;20372;-38
2021/12/29 04:15:29;;;;;;;0.57;0.40;;;10.60;72.50;;;;;;7365610;19;20127;-39
2021/12/29 04:18:03;;;;;;;0.70;0.47;;;10.60;72.50;;;;;;7355772;19;20383;-38
2021/12/29 04:23:21;;;;;;;0.43;0.43;;;10.50;73.70;;;;;;7359600;19;20384;-38
2021/12/29 04:25:54;;;;;;;0.80;0.47;;;10.40;74.50;;;;;;7358654;19;20379;-38
2021/12/29 04:28:26;;;;;;;0.80;0.60;;;10.40;75.60;;;;;;7365496;19;20377;-38
2021/12/29 04:30:57;;;;;;;0.70;0.60;;;10.30;76.20;;;;;;7353748;19;20364;-39
2021/12/29 04:33:28;;;;;;;0.60;0.40;;;10.20;77.00;;;;;;7363331;19;20134;-37
2021/12/29 04:35:58;;;;;;;0.90;0.50;;;10.10;78.20;;;;;;7359653;19;20372;-38
2021/12/29 04:38:30;;;;;;;2.33;0.50;;;10.20;78.80;;;;;;7365351;19;20397;-38
2021/12/29 04:41:00;;;;;;;0.82;0.47;;;10.10;79.50;;;;;;7354994;19;21029;-38
2021/12/29 04:43:29;;;;;;;0.40;0.40;;;9.90;81.70;;;;;;7363735;19;20135;-38
2021/12/29 04:45:59;;;;;;;1.25;0.40;;;9.80;82.50;;;;;;7357109;19;20734;-38
2021/12/29 04:48:37;;;;;;;0.38;0.25;;;9.60;84.10;;;;;;7364022;19;20120;-38
2021/12/29 04:51:14;;;;;;;0.95;0.30;;;9.60;83.60;;;;;;7371706;19;20131;-38
2021/12/29 04:53:46;;;;;;;0.50;0.30;;;9.70;84.10;;;;;;7363122;19;20144;-38
2021/12/29 04:56:18;;;;;;;0.40;0.28;;;9.70;84.20;;;;;;7355457;19;20368;-38
2021/12/29 04:58:47;;;;;;;0.50;0.40;;;9.70;84.50;;;;;;7353425;19;20627;-38
2021/12/29 05:01:17;;;;;;;2.60;0.40;;;9.60;85.00;;;;;;7348906;19;20420;-39
2021/12/29 05:03:47;;;;;;;1.63;0.60;;;9.60;85.00;;;;;;7361186;19;20383;-38
2021/12/29 05:09:01;;;;;;;0.57;0.43;;;9.60;85.40;;;;;;7345390;19;20894;-43
2021/12/29 05:11:31;;;;;;;1.85;0.50;;;9.70;85.20;;;;;;7339329;19;20159;-37
2021/12/29 05:14:00;;;;;;;1.67;0.70;;;9.60;85.20;;;;;;7352196;19;20135;-37
2021/12/29 05:16:30;;;;;;;0.95;0.70;;;9.60;85.60;;;;;;7351334;19;20599;-37
2021/12/29 05:19:00;;;;;;;1.10;0.82;;;9.70;85.20;;;;;;7344689;19;20124;-37
2021/12/29 05:21:32;;;;;;;2.65;0.60;;;9.70;85.20;;;;;;7371418;19;20159;-37
2021/12/29 05:24:04;;;;;;;1.17;1.00;;;9.80;85.00;;;;;;7377803;19;20866;-37
2021/12/29 05:26:33;;;;;;;1.00;0.90;;;9.90;84.90;;;;;;7375361;19;20389;-37
2021/12/29 05:29:03;;;;;;;1.45;0.65;;;9.80;84.70;;;;;;7376320;19;20132;-37
2021/12/29 05:31:32;;;;;;;0.60;0.60;;;10.00;83.70;;;;;;7379596;19;22013;-37
2021/12/29 05:34:02;;;;;;;2.20;0.70;;;9.90;85.20;;;;;;7377070;19;20152;-37
2021/12/29 05:36:34;;;;;;;1.27;0.90;;;9.90;85.00;;;;;;7380387;19;20396;-37
2021/12/29 05:39:07;;;;;;;1.02;0.80;;;10.00;83.30;;;;;;7376307;19;20505;-36
2021/12/29 05:41:37;;;;;;;0.60;0.60;;;9.90;85.00;;;;;;7376091;19;21183;-42
2021/12/29 05:44:08;;;;;;;2.15;0.80;;;9.90;84.50;;;;;;7374331;19;20757;-42
2021/12/29 05:46:37;;;;;;;1.70;0.77;;;9.90;83.30;;;;;;7376678;19;20143;-41
2021/12/29 05:49:07;;;;;;;1.80;0.70;;;9.90;83.60;;;;;;7378522;19;20509;-42
2021/12/29 05:51:36;;;;;;;1.52;0.80;;;9.90;83.00;;;;;;7381368;19;20373;-41
2021/12/29 05:54:08;;;;;;;1.02;0.70;;;9.90;82.10;;;;;;7376623;19;20139;-42
2021/12/29 05:56:40;;;;;;;2.05;1.48;;;9.80;81.70;;;;;;7368214;19;20124;-41
2021/12/29 05:59:10;;;;;;;4.35;0.70;;;9.80;82.70;;;;;;7374177;19;20127;-42
2021/12/29 06:01:39;;;;;;;4.13;0.57;;;9.90;82.40;;;;;;7378347;19;20128;-42
2021/12/29 06:04:09;;;;;;;1.55;0.80;;;9.80;81.70;;;;;;7374066;19;20404;-42
2021/12/29 06:06:39;;;;;;;3.20;0.87;;;9.80;82.10;;;;;;7369756;19;20610;-42
2021/12/29 06:09:11;;;;;;;1.30;0.65;;;9.80;82.10;;;;;;7373817;19;20768;-42
2021/12/29 06:11:42;;;;;;;2.40;0.70;;;9.80;82.20;;;;;;7368529;19;20150;-37
2021/12/29 06:14:12;;;;;;;1.38;0.65;;;9.80;83.30;;;;;;7374096;19;20512;-37
2021/12/29 06:16:41;;;;;;;3.20;0.68;;;9.80;82.10;;;;;;7378307;19;20139;-37
2021/12/29 06:19:11;;;;;;;2.47;0.75;;;9.80;82.60;;;;;;7375223;19;20138;-37
2021/12/29 06:21:40;;;;;;;1.50;0.90;;;9.70;82.80;;;;;;7380253;19;20127;-37
2021/12/29 06:24:12;;;;;;;2.13;0.70;;;9.70;82.80;;;;;;7378282;19;20128;-37
2021/12/29 06:26:42;;;;;;;1.48;0.88;;;9.60;82.70;;;;;;7374330;19;20131;-37
2021/12/29 06:29:11;;;;;;;1.38;0.50;;;9.60;83.10;;;;;;7374682;19;20211;-37
2021/12/29 06:31:44;;;;;;;2.95;0.80;;;9.50;82.10;;;;;;7377949;19;20611;-37
2021/12/29 06:34:14;;;;;;;0.93;0.65;;;9.50;82.80;;;;;;7372543;19;20127;-38
2021/12/29 06:36:43;;;;;;;3.03;0.68;;;9.50;81.90;;;;;;7378281;19;20147;-37
2021/12/29 06:39:16;;;;;;;1.88;0.80;;;9.50;82.50;;;;;;7373292;19;20124;-38
2021/12/29 06:41:45;;;;;;;5.05;0.93;;;9.60;82.50;;;;;;7374251;19;20736;-37
2021/12/29 06:44:15;;;;;;;1.52;0.80;;;9.60;81.80;;;;;;7371714;19;20132;-37
2021/12/29 06:46:44;;;;;;;7.68;3.00;;;9.60;82.10;;;;;;7374863;19;20680;-37
2021/12/29 06:49:14;;;;;;;8.20;4.80;;;9.70;82.30;;;;;;7372246;19;20500;-37
2021/12/29 06:51:43;;;;;;;2.10;1.10;;;9.70;82.00;;;;;;7377905;19;20138;-37
2021/12/29 06:54:15;;;;;;;1.95;0.70;;;9.70;81.60;;;;;;7374379;19;20629;-37
2021/12/29 06:56:45;;;;;;;2.85;0.60;;;9.70;81.60;;;;;;7370872;19;20561;-37
2021/12/29 06:59:17;;;;;;;1.40;0.90;;;9.70;81.60;;;;;;7374126;19;20127;-37
2021/12/29 07:01:46;;;;;;;2.45;1.15;;;9.70;80.90;;;;;;7376089;19;20139;-37
2021/12/29 07:04:16;;;;;;;2.20;0.82;;;9.80;81.50;;;;;;7377412;19;20226;-36
2021/12/29 07:06:46;;;;;;;1.80;0.73;;;9.70;80.80;;;;;;7376129;19;20131;-37
2021/12/29 07:09:18;;;;;;;2.25;1.50;;;9.70;81.10;;;;;;7374730;19;20123;-36
2021/12/29 07:11:48;;;;;;;3.42;0.65;;;9.80;80.80;;;;;;7367057;19;20163;-42
2021/12/29 07:14:20;;;;;;;4.28;0.90;;;9.80;80.80;;;;;;7374752;19;20143;-42
2021/12/29 07:16:50;;;;;;;1.48;0.52;;;9.90;80.60;;;;;;7376104;19;20135;-42
2021/12/29 07:19:21;;;;;;;2.80;0.97;;;9.90;80.80;;;;;;7376175;19;20173;-42
2021/12/29 07:21:51;;;;;;;2.58;0.65;;;10.00;80.00;;;;;;7377520;19;20364;-42
2021/12/29 07:24:25;;;;;;;3.30;0.75;;;9.80;82.30;;;;;;7371030;19;20163;-42
2021/12/29 07:26:57;;;;;;;1.48;0.70;;;9.80;83.10;;;;;;7375849;19;20661;-42
2021/12/29 07:29:27;;;;;;;1.80;0.80;;;9.80;84.00;;;;;;7374156;19;20622;-42
2021/12/29 07:31:57;;;;;;;1.70;0.80;;;9.80;84.00;;;;;;7373742;19;20368;-42
2021/12/29 07:34:28;;;;;;;1.30;0.70;;;9.60;84.70;;;;;;7371610;19;20166;-43
2021/12/29 07:36:58;;;;;;;1.92;0.80;;;9.80;85.10;;;;;;7371429;19;20144;-42
2021/12/29 07:39:32;;;;;;;1.45;1.00;;;9.70;85.00;;;;;;7368220;19;20138;-42
2021/12/29 07:42:02;;;;;;;1.20;0.70;;;9.80;84.90;;;;;;7372147;19;20131;-43
2021/12/29 07:44:43;;;;;;;0.90;0.70;;;9.70;85.40;;;;;;7370013;19;20131;-42
2021/12/29 07:47:13;;;;;;;0.50;0.45;;;9.70;85.80;;;;;;7374115;19;20408;-42
2021/12/29 07:49:43;;;;;;;1.40;0.60;;;9.80;85.40;;;;;;7373380;19;20629;-42
2021/12/29 07:52:12;;;;;;;2.92;0.73;;;9.70;86.10;;;;;;7374116;19;20222;-42
2021/12/29 07:54:44;;;;;;;4.13;2.33;;;9.60;86.40;;;;;;7365646;19;20130;-42
2021/12/29 07:57:14;;;;;;;4.17;1.10;;;9.70;86.60;;;;;;7364522;19;20152;-42
2021/12/29 07:59:47;;;;;;;3.03;1.73;;;9.80;86.30;;;;;;7366894;19;20380;-42
2021/12/29 08:02:27;;;;;;;6.27;1.43;;;9.90;86.50;;;;;;7370650;19;20368;-42
2021/12/29 08:04:59;;;;;;;1.83;0.98;;;10.00;84.60;;;;;;7373170;19;20372;-42
2021/12/29 08:07:30;;;;;;;5.73;1.20;;;10.00;84.30;;;;;;7372109;19;20504;-42
2021/12/29 08:10:02;;;;;;;1.83;0.90;;;10.20;84.40;;;;;;7373360;19;20380;-42
2021/12/29 08:12:32;;;;;;;2.00;1.05;;;10.00;83.60;;;;;;7366770;19;20781;-42
2021/12/29 08:15:05;;;;;;;1.15;0.70;;;9.90;84.60;;;;;;7370889;19;20131;-42
2021/12/29 08:17:34;;;;;;;0.77;0.60;;;9.80;85.30;;;;;;7369142;19;20138;-42
2021/12/29 08:20:06;;;;;;;1.27;0.70;;;9.80;85.10;;;;;;7369183;19;20143;-42
2021/12/29 08:22:36;;;;;;;2.35;1.00;;;9.70;85.30;;;;;;7374140;19;20605;-42
2021/12/29 08:25:10;;;;;;;2.70;1.10;;;9.70;85.30;;;;;;7375694;19;20135;-42
2021/12/29 08:27:39;;;;;;;1.65;0.85;;;9.80;85.10;;;;;;7363598;19;20387;-42
2021/12/29 08:30:10;;;;;;;4.00;2.20;;;9.90;84.40;;;;;;7366872;19;20131;-42
2021/12/29 08:32:40;;;;;;;1.20;0.77;;;10.00;82.50;;;;;;7373862;19;20208;-42
2021/12/29 08:35:10;;;;;;;0.85;0.60;;;10.00;80.70;;;;;;7372209;19;20478;-42
2021/12/29 08:37:41;;;;;;;1.23;0.80;;;10.10;80.40;;;;;;7369469;19;20155;-42
2021/12/29 08:40:14;;;;;;;3.53;0.80;;;10.10;80.60;;;;;;7371534;19;20233;-42
2021/12/29 08:42:46;;;;;;;1.58;1.10;;;10.20;80.20;;;;;;7367924;19;20127;-42
2021/12/29 08:45:18;;;;;;;0.55;0.50;;;10.20;79.70;;;;;;7369530;19;20139;-42
2021/12/29 08:47:48;;;;;;;3.25;0.57;;;10.20;80.00;;;;;;7368870;19;20138;-42
2021/12/29 08:50:20;;;;;;;2.67;0.60;;;10.20;78.70;;;;;;7367977;19;20142;-41
2021/12/29 08:52:49;;;;;;;1.00;0.63;;;10.10;77.80;;;;;;7369356;19;20619;-42
2021/12/29 08:55:21;;;;;;;1.20;0.60;;;10.20;78.00;;;;;;7364738;19;20131;-42
2021/12/29 08:57:53;;;;;;;0.77;0.60;;;10.30;78.30;;;;;;7377477;19;20119;-42
2021/12/29 09:00:23;;;;;;;3.10;0.88;;;10.40;78.00;;;;;;7376812;19;20192;-42
2021/12/29 09:02:53;;;;;;;1.20;0.60;;;10.30;76.60;;;;;;7378356;19;20135;-42
2021/12/29 09:05:23;;;;;;;2.33;1.07;;;10.30;76.80;;;;;;7377163;19;20153;-42
2021/12/29 09:07:53;;;;;;;0.93;0.73;;;10.40;76.80;;;;;;7377880;19;20742;-42
2021/12/29 09:10:26;;;;;;;5.80;1.00;;;10.50;76.90;;;;;;7374216;19;20447;-42
2021/12/29 09:12:56;;;;;;;2.13;0.93;;;10.40;76.60;;;;;;7376412;19;20610;-42
2021/12/29 09:15:26;;;;;;;0.45;0.40;;;10.40;76.60;;;;;;7376088;19;20380;-42
2021/12/29 09:17:56;;;;;;;2.40;0.70;;;10.50;76.90;;;;;;7378956;19;20134;-41
2021/12/29 09:20:31;;;;;;;0.82;0.40;;;10.60;75.70;;;;;;7379551;19;20713;-42
2021/12/29 09:23:04;;;;;;;0.70;0.45;;;10.60;75.60;;;;;;7377548;19;20146;-42
2021/12/29 09:25:38;;;;;;;2.08;0.70;;;10.60;74.90;;;;;;7380403;19;20124;-42
2021/12/29 09:28:09;;;;;;;0.95;0.55;;;10.60;75.00;;;;;;7379232;19;20709;-42
2021/12/29 09:30:42;;;;;;;1.00;0.90;;;10.60;75.70;;;;;;7377596;19;20131;-42
2021/12/29 09:33:15;;;;;;;1.80;1.23;;;10.80;75.80;;;;;;7377461;19;20495;-42
2021/12/29 09:35:46;;;;;;;1.42;0.70;;;10.90;75.20;;;;;;7377790;19;20430;-42
2021/12/29 09:38:18;;;;;;;1.80;0.70;;;10.80;74.50;;;;;;7378665;19;20131;-41
2021/12/29 09:40:51;;;;;;;2.90;1.00;;;10.80;74.70;;;;;;7375901;19;20740;-42
2021/12/29 09:43:22;;;;;;;2.07;0.70;;;10.70;74.50;;;;;;7378670;19;20384;-43
2021/12/29 09:45:52;;;;;;;2.50;0.70;;;10.70;75.30;;;;;;7377192;19;20368;-42
2021/12/29 09:48:23;;;;;;;0.80;0.50;;;10.80;74.50;;;;;;7377499;19;20134;-42
2021/12/29 09:50:54;;;;;;;5.03;0.70;;;10.70;75.00;;;;;;7378258;19;20372;-42
2021/12/29 09:53:23;;;;;;;1.50;0.70;;;10.80;74.70;;;;;;7380034;19;20365;-42
2021/12/29 09:55:55;;;;;;;0.90;0.90;;;10.90;75.50;;;;;;7372151;19;20954;-42
2021/12/29 09:58:25;;;;;;;2.47;1.60;;;11.00;74.80;;;;;;7379091;19;20397;-42
2021/12/29 10:00:57;;;;;;;2.00;0.80;;;11.20;75.30;;;;;;7372805;19;20423;-42
2021/12/29 10:03:29;;;;;;;2.57;1.30;;;11.30;75.20;;;;;;7378724;19;20379;-42
2021/12/29 10:06:01;;;;;;;3.30;0.80;;;11.20;76.40;;;;;;7374468;19;20498;-42
2021/12/29 10:08:37;;;;;;;2.70;1.27;;;11.00;75.30;;;;;;7371546;19;20382;-42
2021/12/29 10:11:12;;;;;;;2.93;1.23;;;11.00;76.70;;;;;;7371689;19;20408;-42
2021/12/29 10:13:45;;;;;;;1.90;1.03;;;10.90;75.60;;;;;;7376565;19;20899;-42
2021/12/29 10:16:17;;;;;;;3.00;1.30;;;11.00;75.60;;;;;;7376785;19;20420;-42
2021/12/29 10:18:53;;;;;;;3.47;1.20;;;11.00;75.10;;;;;;7375369;19;20383;-42
2021/12/29 10:21:26;;;;;;;1.30;1.20;;;10.90;75.40;;;;;;7373736;19;20383;-42
2021/12/29 10:23:57;;;;;;;2.13;1.00;;;10.80;76.40;;;;;;7376183;19;20517;-42
2021/12/29 10:26:32;;;;;;;1.17;1.00;;;10.70;76.90;;;;;;7374774;19;20380;-42
2021/12/29 10:29:05;;;;;;;2.33;0.90;;;10.60;77.50;;;;;;7371020;19;20386;-42
2021/12/29 10:31:38;;;;;;;1.60;1.00;;;10.60;77.70;;;;;;7378421;19;20798;-42
2021/12/29 10:34:09;;;;;;;3.73;1.03;;;10.60;78.30;;;;;;7376169;19;20437;-42
2021/12/29 10:36:42;;;;;;;2.93;1.77;;;10.60;78.70;;;;;;7375516;19;20400;-42
2021/12/29 10:39:19;;;;;;;1.80;1.03;;;10.70;78.40;;;;;;7372141;19;20381;-43
2021/12/29 10:41:55;;;;;;;1.35;0.70;;;10.70;76.30;;;;;;7375160;19;20376;-42
2021/12/29 10:44:31;;;;;;;1.58;1.10;;;10.70;75.00;;;;;;7375827;19;20138;-42
2021/12/29 10:47:03;;;;;;;2.70;1.47;;;10.70;76.60;;;;;;7370642;19;20164;-42
2021/12/29 10:49:33;;;;;;;2.87;1.30;;;10.70;77.10;;;;;;7377350;19;20377;-42
2021/12/29 10:52:02;;;;;;;1.50;1.13;;;10.80;75.70;;;;;;7375424;19;20803;-42
2021/12/29 10:54:34;;;;;;;1.23;0.70;;;10.90;76.20;;;;;;7370020;19;20677;-43
2021/12/29 10:57:12;;;;;;;2.63;1.00;;;11.00;75.90;;;;;;7372026;19;20389;-42
2021/12/29 10:59:44;;;;;;;2.10;1.10;;;11.10;75.10;;;;;;7373648;19;20380;-42
2021/12/29 11:02:14;;;;;;;1.60;1.10;;;11.20;73.80;;;;;;7372309;19;20380;-42
2021/12/29 11:04:43;;;;;;;4.43;1.13;;;11.20;73.70;;;;;;7378355;19;20388;-42
2021/12/29 11:07:14;;;;;;;2.10;1.13;;;11.30;73.60;;;;;;7367792;19;20913;-42
2021/12/29 11:09:43;;;;;;;4.43;1.00;;;11.30;72.50;;;;;;7368702;19;20380;-42
2021/12/29 11:12:18;;;;;;;1.37;0.83;;;11.30;73.00;;;;;;7370743;19;20448;-42
2021/12/29 11:14:53;;;;;;;1.40;0.90;;;11.30;72.20;;;;;;7376611;19;20400;-42
2021/12/29 11:17:27;;;;;;;1.90;0.70;;;11.20;71.90;;;;;;7373454;19;20364;-42
2021/12/29 11:19:59;;;;;;;3.57;0.80;;;11.20;71.90;;;;;;7369227;19;20404;-42
2021/12/29 11:22:32;;;;;;;4.30;1.00;;;11.20;72.50;;;;;;7375036;19;20384;-42
2021/12/29 11:25:03;;;;;;;1.90;1.50;;;11.10;72.50;;;;;;7374111;19;20736;-42
2021/12/29 11:27:37;;;;;;;1.50;0.70;;;11.10;72.90;;;;;;7372739;19;20376;-42
2021/12/29 11:30:10;;;;;;;2.10;0.90;;;11.10;72.80;;;;;;7374325;19;20372;-42
2021/12/29 11:32:41;;;;;;;1.40;1.00;;;11.20;72.60;;;;;;7372433;19;20372;-42
2021/12/29 11:35:14;;;;;;;2.20;0.77;;;11.20;72.10;;;;;;7372474;19;20384;-42
2021/12/29 11:37:46;;;;;;;2.67;0.77;;;11.20;72.80;;;;;;7369546;19;21057;-42
2021/12/29 11:40:20;;;;;;;0.70;0.60;;;11.30;72.30;;;;;;7372070;19;20994;-42
2021/12/29 11:42:55;;;;;;;4.80;1.13;;;11.30;72.20;;;;;;7374362;19;22535;-42
2021/12/29 11:45:25;;;;;;;1.50;0.83;;;11.20;71.90;;;;;;7373904;19;20368;-42
2021/12/29 11:47:56;;;;;;;2.17;0.90;;;11.20;73.20;;;;;;7374555;19;20372;-41
2021/12/29 11:50:34;;;;;;;3.20;1.00;;;11.30;72.50;;;;;;7374036;19;20380;-42
2021/12/29 11:53:19;;;;;;;1.83;0.60;;;11.30;72.80;;;;;;7372044;19;20380;-42
2021/12/29 11:55:53;;;;;;;1.20;0.97;;;11.40;73.10;;;;;;7366698;19;20375;-42
2021/12/29 11:58:29;;;;;;;2.53;0.70;;;11.40;72.20;;;;;;7374649;19;20380;-42
2021/12/29 12:01:07;;;;;;;2.17;0.70;;;11.40;72.30;;;;;;7374636;19;20371;-42
2021/12/29 12:03:51;;;;;;;1.27;0.90;;;11.30;72.60;;;;;;7374678;19;20372;-41
2021/12/29 12:06:30;;;;;;;2.40;0.90;;;11.30;72.60;;;;;;7376499;19;20384;-41
2021/12/29 12:09:08;;;;;;;2.03;0.90;;;11.40;72.40;;;;;;7374461;19;20382;-42
2021/12/29 12:11:40;;;;;;;1.40;0.70;;;11.30;71.60;;;;;;7368180;19;20443;-42
2021/12/29 12:14:24;;;;;;;1.97;0.90;;;11.30;72.90;;;;;;7373631;19;20383;-42
2021/12/29 12:16:57;;;;;;;1.43;0.87;;;11.40;72.00;;;;;;7368848;19;20523;-42
2021/12/29 12:19:29;;;;;;;1.30;1.10;;;11.60;72.20;;;;;;7372982;19;20404;-42
2021/12/29 12:22:08;;;;;;;3.13;1.43;;;11.80;71.30;;;;;;7375190;19;20379;-42
2021/12/29 12:24:39;;;;;;;3.13;0.80;;;12.00;71.50;;;;;;7374477;19;20965;-42
2021/12/29 12:27:15;;;;;;;2.60;1.40;;;11.70;69.60;;;;;;7375429;19;20376;-42
2021/12/29 12:29:48;;;;;;;1.93;0.60;;;12.10;70.30;;;;;;7372596;19;20479;-42
2021/12/29 12:32:21;;;;;;;1.83;0.83;;;12.00;69.80;;;;;;7374422;19;21235;-42
2021/12/29 12:34:54;;;;;;;2.50;0.93;;;12.00;70.00;;;;;;7379570;19;20411;-42
2021/12/29 12:37:26;;;;;;;1.10;0.90;;;11.90;70.10;;;;;;7376322;19;20728;-43
2021/12/29 12:39:57;;;;;;;1.60;1.10;;;12.00;70.40;;;;;;7378976;19;21317;-42
2021/12/29 12:42:29;;;;;;;1.33;1.00;;;12.00;70.40;;;;;;7374730;19;20483;-42
2021/12/29 12:45:02;;;;;;;5.73;1.20;;;12.00;70.10;;;;;;7379589;19;20418;-42
2021/12/29 12:47:34;;;;;;;2.20;1.87;;;12.00;70.50;;;;;;7378265;19;20383;-42
2021/12/29 12:50:04;;;;;;;4.30;1.33;;;12.10;69.80;;;;;;7383042;19;20383;-42
2021/12/29 12:52:44;;;;;;;4.33;1.23;;;12.00;69.80;;;;;;7379280;19;20372;-42
2021/12/29 12:55:16;;;;;;;5.97;1.10;;;12.00;70.00;;;;;;7375161;19;20360;-42
2021/12/29 12:57:50;;;;;;;10.57;4.43;;;12.00;69.80;;;;;;7378339;19;20371;-42
2021/12/29 13:00:26;;;;;;;4.33;1.77;;;12.00;70.40;;;;;;7378057;19;20374;-42
2021/12/29 13:02:58;;;;;;;4.37;1.67;;;12.00;70.10;;;;;;7380032;19;20466;-42
2021/12/29 13:05:30;;;;;;;4.17;1.80;;;12.00;70.70;;;;;;7380743;19;21165;-42
2021/12/29 13:08:06;;;;;;;7.20;1.93;;;12.00;71.20;;;;;;7381811;19;20391;-42
2021/12/29 13:10:41;;;;;;;3.33;1.67;;;12.00;70.80;;;;;;7372055;19;20427;-42
2021/12/29 13:13:15;;;;;;;2.77;1.57;;;11.90;70.80;;;;;;7378008;19;20386;-42
2021/12/29 13:15:53;;;;;;;8.30;1.67;;;11.80;69.70;;;;;;7378939;19;20379;-42
2021/12/29 13:18:24;;;;;;;5.33;1.60;;;11.70;70.20;;;;;;7349782;19;20443;-42
2021/12/29 13:20:58;;;;;;;7.13;2.27;;;11.70;70.10;;;;;;7379741;19;20760;-42